Time;durP1;ratioP1;P1;durP2;ratioP2;P2;SDS_P1;SDS_P2;PMS_P1;PMS_P2;Temp;Humidity;BMP_temperature;BMP_pressure;BME280_temperature;BME280_humidity;BME280_pressure;Samples;Min_cycle;Max_cycle;Signal;HPM_P1;HPM_P2
2022/10/14 00:01:07;;;;;;;4.75;3.33;;;24.10;58.80;;;;;;5032295;28;20490;-66
2022/10/14 00:03:34;;;;;;;4.22;3.83;;;24.20;58.60;;;;;;5031144;28;20022;-67
2022/10/14 00:06:13;;;;;;;5.25;4.10;;;24.30;58.60;;;;;;5032133;28;20060;-65
2022/10/14 00:08:40;;;;;;;5.32;3.72;;;24.10;58.60;;;;;;5030491;28;20065;-67
2022/10/14 00:11:18;;;;;;;7.00;3.65;;;24.30;58.60;;;;;;5031742;28;20052;-67
2022/10/14 00:13:44;;;;;;;7.00;4.10;;;24.30;58.60;;;;;;5032511;28;20367;-67
2022/10/14 00:16:39;;;;;;;4.13;3.72;;;24.20;58.70;;;;;;5030894;28;20124;-67
2022/10/14 00:19:09;;;;;;;3.65;2.97;;;24.30;58.40;;;;;;4970517;28;20488;-67
2022/10/14 00:21:37;;;;;;;3.38;3.08;;;24.20;58.20;;;;;;4970877;28;20535;-65
2022/10/14 00:24:05;;;;;;;4.93;3.58;;;24.30;58.20;;;;;;4954748;28;20114;-67
2022/10/14 00:26:36;;;;;;;4.55;3.15;;;24.40;58.10;;;;;;4970939;28;20031;-66
2022/10/14 00:29:06;;;;;;;3.55;3.22;;;24.50;58.10;;;;;;4971293;28;20038;-66
2022/10/14 00:31:32;;;;;;;4.00;3.22;;;24.40;57.90;;;;;;4971327;28;20523;-66
2022/10/14 00:33:58;;;;;;;4.32;3.38;;;24.30;58.10;;;;;;4971058;28;20050;-66
2022/10/14 00:36:25;;;;;;;6.60;3.03;;;24.40;58.10;;;;;;4971064;28;20035;-66
2022/10/14 00:38:52;;;;;;;7.43;4.07;;;24.30;58.20;;;;;;4971034;28;20122;-66
2022/10/14 00:41:30;;;;;;;4.40;3.10;;;24.30;58.40;;;;;;4938722;28;20070;-66
2022/10/14 00:44:06;;;;;;;4.65;3.40;;;24.10;58.60;;;;;;4955147;28;20069;-67
2022/10/14 00:46:35;;;;;;;4.35;3.08;;;24.10;58.70;;;;;;4971099;28;20059;-66
2022/10/14 00:49:12;;;;;;;2.97;2.70;;;24.10;58.90;;;;;;4970766;28;20042;-67
2022/10/14 00:51:41;;;;;;;7.10;3.40;;;24.00;59.00;;;;;;4938388;28;20242;-66
2022/10/14 00:54:09;;;;;;;8.18;4.07;;;24.10;58.90;;;;;;4932281;29;20043;-66
2022/10/14 00:56:35;;;;;;;6.13;3.58;;;24.10;58.70;;;;;;4993705;28;20081;-67
2022/10/14 00:59:04;;;;;;;4.57;3.45;;;24.00;58.70;;;;;;4992485;28;20092;-66
2022/10/14 01:01:30;;;;;;;5.88;2.92;;;24.10;58.70;;;;;;5009613;28;20118;-66
2022/10/14 01:03:56;;;;;;;6.22;3.40;;;24.10;58.80;;;;;;5008618;28;20042;-67
2022/10/14 01:06:32;;;;;;;4.80;3.15;;;24.00;58.60;;;;;;4978037;28;20061;-66
2022/10/14 01:09:06;;;;;;;5.28;3.55;;;24.10;58.80;;;;;;5008742;28;20052;-66
2022/10/14 01:11:56;;;;;;;5.35;2.97;;;24.10;58.80;;;;;;5008680;28;20033;-67
2022/10/14 01:15:03;;;;;;;3.95;3.40;;;24.10;58.90;;;;;;5009004;28;20073;-66
2022/10/14 01:17:35;;;;;;;5.22;3.90;;;24.00;58.90;;;;;;4950192;29;20051;-67
2022/10/14 01:20:36;;;;;;;5.00;3.05;;;24.00;59.00;;;;;;4950330;29;20105;-67
2022/10/14 01:23:02;;;;;;;4.35;3.58;;;24.00;59.00;;;;;;4912183;29;20048;-66
2022/10/14 01:25:34;;;;;;;5.10;2.90;;;24.00;59.00;;;;;;4924610;29;20059;-66
2022/10/14 01:28:19;;;;;;;6.80;3.40;;;24.00;59.00;;;;;;4931782;29;20043;-67
2022/10/14 01:30:49;;;;;;;5.30;2.90;;;24.00;58.90;;;;;;4931840;29;20052;-66
2022/10/14 01:33:21;;;;;;;4.88;3.95;;;24.10;58.90;;;;;;4915810;29;20039;-66
2022/10/14 01:36:05;;;;;;;4.63;3.10;;;24.00;58.80;;;;;;4931915;29;20042;-67
2022/10/14 01:38:37;;;;;;;4.32;3.10;;;24.00;58.90;;;;;;4931526;29;20764;-66
2022/10/14 01:41:31;;;;;;;4.00;3.25;;;23.90;58.90;;;;;;4931580;29;20473;-67
2022/10/14 01:44:04;;;;;;;6.35;3.40;;;24.00;58.90;;;;;;4931757;29;20040;-67
2022/10/14 01:46:32;;;;;;;5.10;3.75;;;24.00;59.00;;;;;;4915558;29;20054;-67
2022/10/14 01:49:13;;;;;;;3.63;3.05;;;23.80;58.90;;;;;;4931426;29;20641;-67
2022/10/14 01:51:51;;;;;;;6.63;3.70;;;24.00;59.00;;;;;;4915537;29;20496;-67
2022/10/14 01:54:23;;;;;;;4.78;3.20;;;23.80;58.90;;;;;;4962580;28;20047;-66
2022/10/14 01:56:52;;;;;;;4.63;3.53;;;23.90;59.10;;;;;;4966502;28;20050;-67
2022/10/14 01:59:20;;;;;;;5.55;3.42;;;23.80;59.10;;;;;;4972931;28;20065;-66
2022/10/14 02:01:46;;;;;;;3.90;2.60;;;23.90;59.20;;;;;;4973028;28;20047;-67
2022/10/14 02:04:20;;;;;;;6.53;3.97;;;23.80;59.00;;;;;;4972525;28;20089;-67
2022/10/14 02:07:10;;;;;;;5.90;3.50;;;23.80;58.80;;;;;;4988945;28;20051;-66
2022/10/14 02:10:26;;;;;;;4.40;2.83;;;23.80;58.80;;;;;;4988688;28;20034;-66
2022/10/14 02:13:45;;;;;;;5.93;3.28;;;23.80;58.70;;;;;;4950404;29;20090;-67
2022/10/14 02:16:14;;;;;;;4.97;2.90;;;23.80;58.90;;;;;;4877350;29;20180;-67
2022/10/14 02:18:51;;;;;;;5.85;3.05;;;23.90;58.90;;;;;;4893450;29;20128;-67
2022/10/14 02:21:26;;;;;;;4.95;3.30;;;23.90;58.70;;;;;;4877945;29;20804;-66
2022/10/14 02:24:19;;;;;;;3.75;2.47;;;23.90;58.70;;;;;;4877550;29;20212;-67
2022/10/14 02:26:47;;;;;;;3.22;2.47;;;23.80;58.70;;;;;;4894748;29;20048;-66
2022/10/14 02:29:16;;;;;;;3.80;2.50;;;23.90;58.80;;;;;;4914747;29;20554;-67
2022/10/14 02:31:44;;;;;;;3.95;2.47;;;23.90;58.80;;;;;;4931053;29;20504;-67
2022/10/14 02:34:17;;;;;;;3.40;2.55;;;23.90;58.80;;;;;;4930947;29;20047;-67
2022/10/14 02:36:45;;;;;;;3.33;2.70;;;24.00;58.80;;;;;;4931149;29;20066;-66
2022/10/14 02:39:14;;;;;;;4.72;2.90;;;24.00;58.60;;;;;;4930970;29;20051;-66
2022/10/14 02:41:40;;;;;;;4.00;2.55;;;24.00;58.60;;;;;;4915312;29;20055;-67
2022/10/14 02:44:07;;;;;;;5.15;3.08;;;24.00;58.40;;;;;;4930220;29;20043;-66
2022/10/14 02:46:34;;;;;;;4.63;2.35;;;24.00;58.40;;;;;;4930767;29;20031;-67
2022/10/14 02:49:00;;;;;;;4.85;3.03;;;24.00;58.40;;;;;;4942117;28;20038;-66
2022/10/14 02:51:26;;;;;;;4.20;2.90;;;24.00;58.30;;;;;;5010843;28;20045;-67
2022/10/14 02:53:52;;;;;;;6.72;2.70;;;24.10;58.40;;;;;;5011235;28;20033;-66
2022/10/14 02:56:18;;;;;;;4.15;2.58;;;24.00;58.60;;;;;;4993554;28;20034;-67
2022/10/14 02:58:45;;;;;;;4.32;3.03;;;23.80;58.80;;;;;;5009795;28;20439;-67
2022/10/14 03:01:11;;;;;;;5.03;2.47;;;23.80;58.90;;;;;;5003085;28;20123;-66
2022/10/14 03:03:38;;;;;;;4.85;2.90;;;23.70;58.90;;;;;;5010783;28;20041;-67
2022/10/14 03:06:04;;;;;;;7.85;2.72;;;23.70;58.80;;;;;;5009360;28;20050;-66
2022/10/14 03:08:32;;;;;;;4.35;3.15;;;23.80;58.70;;;;;;5010613;28;20064;-65
2022/10/14 03:10:58;;;;;;;3.90;2.67;;;23.80;58.70;;;;;;5007793;28;20052;-67
2022/10/14 03:13:26;;;;;;;5.38;2.70;;;23.80;58.60;;;;;;4991863;28;20538;-67
2022/10/14 03:15:52;;;;;;;4.53;2.70;;;23.80;58.60;;;;;;4991840;28;20181;-67
2022/10/14 03:18:19;;;;;;;4.78;2.80;;;23.70;58.80;;;;;;4991823;28;20507;-67
2022/10/14 03:20:47;;;;;;;7.78;3.13;;;23.70;58.90;;;;;;4992435;28;20539;-66
2022/10/14 03:23:21;;;;;;;4.47;3.20;;;23.60;58.90;;;;;;4995399;28;20044;-66
2022/10/14 03:25:50;;;;;;;4.78;2.58;;;23.60;58.90;;;;;;5011447;28;20473;-66
2022/10/14 03:28:24;;;;;;;5.22;3.15;;;23.60;59.10;;;;;;4995059;28;20062;-67
2022/10/14 03:30:57;;;;;;;5.25;2.78;;;23.50;59.20;;;;;;4995232;28;20109;-66
2022/10/14 03:33:55;;;;;;;5.65;3.58;;;23.50;59.40;;;;;;4972727;28;20042;-67
2022/10/14 03:36:21;;;;;;;3.30;2.53;;;23.50;59.20;;;;;;4972249;28;20054;-67
2022/10/14 03:38:52;;;;;;;3.33;2.85;;;23.50;59.40;;;;;;4972086;28;20049;-67
2022/10/14 03:41:34;;;;;;;6.22;3.05;;;23.50;59.30;;;;;;4972350;28;20491;-66
2022/10/14 03:44:00;;;;;;;6.85;2.85;;;23.40;59.10;;;;;;4972502;28;20311;-66
2022/10/14 03:46:26;;;;;;;3.22;2.42;;;23.50;59.20;;;;;;4956293;28;20039;-67
2022/10/14 03:48:53;;;;;;;3.28;2.80;;;23.60;59.00;;;;;;4956369;28;20027;-67
2022/10/14 03:51:20;;;;;;;5.55;2.78;;;23.70;59.10;;;;;;4955721;28;20046;-68
2022/10/14 03:53:46;;;;;;;3.78;2.40;;;23.80;58.90;;;;;;4955703;28;20114;-68
2022/10/14 03:56:16;;;;;;;3.95;2.33;;;23.80;58.70;;;;;;4971640;28;20054;-68
2022/10/14 03:58:43;;;;;;;3.97;2.30;;;23.90;58.50;;;;;;4955236;28;20117;-69
2022/10/14 04:01:13;;;;;;;4.53;2.53;;;23.80;58.20;;;;;;4955614;28;20157;-68
2022/10/14 04:04:05;;;;;;;4.75;2.47;;;24.00;58.10;;;;;;4914402;29;20056;-68
2022/10/14 04:06:33;;;;;;;4.35;2.72;;;24.00;57.80;;;;;;4898664;29;20068;-67
2022/10/14 04:09:03;;;;;;;5.32;2.60;;;24.00;57.10;;;;;;4923060;29;20058;-67
2022/10/14 04:11:33;;;;;;;4.88;2.40;;;24.00;56.30;;;;;;4952506;29;20035;-66
2022/10/14 04:14:04;;;;;;;5.28;2.97;;;24.10;55.80;;;;;;4950735;29;20043;-67
2022/10/14 04:16:34;;;;;;;5.43;3.08;;;24.20;57.00;;;;;;4903297;29;20043;-64
2022/10/14 04:19:09;;;;;;;5.53;3.08;;;24.50;58.50;;;;;;4888520;29;20134;-65
2022/10/14 04:21:35;;;;;;;6.85;3.25;;;25.00;58.10;;;;;;4916305;29;20528;-64
2022/10/14 04:24:01;;;;;;;5.57;3.17;;;24.90;58.60;;;;;;4916453;29;20036;-65
2022/10/14 04:26:37;;;;;;;2.95;2.63;;;24.90;55.10;;;;;;4916652;29;20464;-66
2022/10/14 04:29:09;;;;;;;3.80;2.60;;;24.80;54.30;;;;;;4871355;29;20434;-66
2022/10/14 04:31:45;;;;;;;6.10;2.33;;;24.80;53.40;;;;;;4916554;29;20070;-66
2022/10/14 04:34:11;;;;;;;4.00;2.83;;;24.70;53.10;;;;;;4916969;29;20043;-66
2022/10/14 04:36:39;;;;;;;4.88;2.97;;;24.80;52.80;;;;;;4916941;29;20504;-66
2022/10/14 04:39:19;;;;;;;4.95;3.03;;;24.70;52.50;;;;;;4916584;29;20134;-67
2022/10/14 04:41:45;;;;;;;3.25;2.65;;;24.80;52.20;;;;;;5001136;28;20054;-67
2022/10/14 04:44:14;;;;;;;4.47;2.97;;;24.70;51.90;;;;;;5011418;28;20030;-66
2022/10/14 04:46:47;;;;;;;3.55;2.88;;;24.70;51.90;;;;;;4995664;28;20045;-67
2022/10/14 04:49:15;;;;;;;5.55;3.20;;;24.60;51.50;;;;;;5012758;28;20053;-69
2022/10/14 04:51:48;;;;;;;5.43;2.83;;;24.60;50.90;;;;;;5012629;28;20048;-67
2022/10/14 04:54:27;;;;;;;6.10;2.83;;;24.60;50.90;;;;;;5027847;28;20093;-67
2022/10/14 04:56:54;;;;;;;6.30;2.97;;;24.50;50.80;;;;;;5027961;28;20071;-68
2022/10/14 04:59:20;;;;;;;4.97;3.30;;;24.60;50.60;;;;;;5032161;28;20445;-67
2022/10/14 05:01:55;;;;;;;1.83;1.05;;;24.60;50.30;;;;;;5031024;28;20076;-67
2022/10/14 05:04:28;;;;;;;3.50;1.40;;;24.70;50.40;;;;;;5030979;28;20037;-67
2022/10/14 05:06:56;;;;;;;4.70;1.85;;;24.60;49.80;;;;;;5030302;28;20482;-67
2022/10/14 05:09:23;;;;;;;1.80;0.80;;;24.60;49.30;;;;;;4995719;28;20045;-68
2022/10/14 05:11:49;;;;;;;5.72;2.15;;;24.60;49.20;;;;;;5030183;28;20037;-67
2022/10/14 05:14:21;;;;;;;2.00;1.73;;;24.60;49.10;;;;;;5030469;28;20133;-67
2022/10/14 05:16:52;;;;;;;1.93;1.17;;;24.60;48.10;;;;;;5030597;28;20037;-68
2022/10/14 05:19:25;;;;;;;1.25;1.15;;;24.70;49.50;;;;;;5030305;28;20063;-68
2022/10/14 05:21:52;;;;;;;1.65;1.55;;;24.70;48.70;;;;;;5012926;28;20045;-67
2022/10/14 05:24:38;;;;;;;5.95;2.80;;;24.60;49.80;;;;;;5030713;28;20047;-68
2022/10/14 05:27:04;;;;;;;6.65;4.28;;;24.60;54.00;;;;;;5032399;28;20112;-68
2022/10/14 05:29:31;;;;;;;12.90;5.07;;;24.60;54.20;;;;;;5030360;28;20082;-68
2022/10/14 05:31:59;;;;;;;13.30;4.93;;;24.50;53.20;;;;;;5030274;28;20026;-68
2022/10/14 05:34:38;;;;;;;6.22;3.33;;;24.80;52.00;;;;;;4996626;28;20421;-68
2022/10/14 05:37:08;;;;;;;4.72;2.65;;;24.70;54.70;;;;;;5010180;28;20150;-68
2022/10/14 05:39:41;;;;;;;3.60;2.67;;;24.70;54.70;;;;;;5009883;28;20130;-68
2022/10/14 05:42:07;;;;;;;7.45;3.38;;;24.70;54.80;;;;;;4996439;28;20133;-67
2022/10/14 05:44:34;;;;;;;5.90;2.75;;;24.70;54.80;;;;;;4939887;28;20050;-68
2022/10/14 05:47:02;;;;;;;6.63;2.97;;;24.60;54.40;;;;;;4989565;28;20050;-68
2022/10/14 05:49:28;;;;;;;4.50;2.85;;;24.70;55.30;;;;;;4972916;28;20078;-69
2022/10/14 05:51:56;;;;;;;3.70;2.65;;;24.60;55.20;;;;;;4973370;28;20066;-68
2022/10/14 05:54:23;;;;;;;5.53;2.85;;;24.60;55.50;;;;;;4963533;28;20058;-67
2022/10/14 05:56:52;;;;;;;7.00;3.42;;;24.60;55.30;;;;;;4987988;28;20462;-67
2022/10/14 05:59:18;;;;;;;5.07;3.20;;;24.60;55.20;;;;;;4964308;28;20049;-68
2022/10/14 06:01:45;;;;;;;4.95;3.20;;;24.40;55.30;;;;;;4971845;28;20065;-67
2022/10/14 06:04:19;;;;;;;6.20;2.58;;;24.60;55.80;;;;;;4968726;28;20507;-68
2022/10/14 06:06:46;;;;;;;6.70;2.88;;;24.60;55.90;;;;;;4985080;28;20049;-66
2022/10/14 06:09:13;;;;;;;3.70;2.75;;;24.40;55.60;;;;;;4965321;28;20468;-66
2022/10/14 06:11:39;;;;;;;6.10;2.80;;;24.40;55.40;;;;;;4940243;29;20047;-67
2022/10/14 06:14:05;;;;;;;5.10;3.17;;;24.50;56.20;;;;;;4983516;28;20042;-68
2022/10/14 06:16:32;;;;;;;4.38;3.22;;;24.50;56.20;;;;;;5009048;28;20411;-68
2022/10/14 06:19:01;;;;;;;5.53;3.22;;;24.50;56.10;;;;;;4963539;28;20662;-69
2022/10/14 06:21:27;;;;;;;8.52;2.88;;;24.40;55.90;;;;;;5008463;28;20042;-68
2022/10/14 06:23:53;;;;;;;5.88;2.58;;;24.50;56.20;;;;;;4975018;28;20045;-67
2022/10/14 06:26:19;;;;;;;5.70;3.00;;;24.60;56.50;;;;;;5005805;28;20077;-65
2022/10/14 06:28:45;;;;;;;7.35;3.65;;;24.50;56.60;;;;;;5008124;28;20045;-70
2022/10/14 06:31:11;;;;;;;7.78;3.30;;;24.60;56.70;;;;;;4975472;28;20046;-66
2022/10/14 06:33:38;;;;;;;11.73;2.58;;;24.40;56.30;;;;;;5008229;28;20044;-67
2022/10/14 06:36:05;;;;;;;3.53;2.17;;;24.60;53.70;;;;;;5008275;28;20092;-65
2022/10/14 06:38:32;;;;;;;3.13;2.35;;;24.70;52.40;;;;;;5007950;28;20422;-68
2022/10/14 06:40:58;;;;;;;6.68;2.58;;;24.90;56.30;;;;;;5008171;28;20038;-68
2022/10/14 06:43:24;;;;;;;4.88;2.70;;;25.00;56.00;;;;;;5008045;28;20200;-69
2022/10/14 06:45:51;;;;;;;3.53;2.55;;;24.80;56.10;;;;;;5030982;28;20466;-68
2022/10/14 06:48:17;;;;;;;8.05;3.10;;;24.80;56.20;;;;;;5029289;28;20091;-68
2022/10/14 06:50:43;;;;;;;5.78;2.95;;;24.80;56.20;;;;;;5029511;28;20034;-68
2022/10/14 06:53:09;;;;;;;4.10;2.42;;;24.80;56.40;;;;;;5030284;28;20452;-68
2022/10/14 06:55:35;;;;;;;6.15;3.53;;;24.60;56.30;;;;;;5032360;28;20029;-67
2022/10/14 06:58:01;;;;;;;7.47;3.00;;;24.80;57.00;;;;;;5031836;28;20060;-67
2022/10/14 07:00:27;;;;;;;8.10;2.58;;;24.70;56.60;;;;;;5033043;28;20100;-69
2022/10/14 07:02:53;;;;;;;3.03;2.45;;;24.70;56.60;;;;;;5033661;28;20037;-67
2022/10/14 07:05:19;;;;;;;5.85;2.72;;;24.60;56.50;;;;;;5033203;28;20075;-67
2022/10/14 07:07:45;;;;;;;4.35;2.47;;;24.80;56.60;;;;;;5033678;28;20064;-70
2022/10/14 07:10:11;;;;;;;3.85;2.53;;;24.60;56.60;;;;;;5033052;28;20029;-68
2022/10/14 07:12:37;;;;;;;6.43;2.47;;;24.60;56.70;;;;;;5033523;28;20502;-69
2022/10/14 07:15:04;;;;;;;5.13;2.67;;;24.60;56.70;;;;;;5033440;28;20044;-70
2022/10/14 07:17:30;;;;;;;5.55;2.78;;;24.50;56.60;;;;;;5033407;28;20043;-69
2022/10/14 07:19:57;;;;;;;8.02;3.05;;;24.50;56.70;;;;;;5033358;28;20091;-67
2022/10/14 07:22:22;;;;;;;4.93;2.70;;;24.60;56.60;;;;;;5033249;28;20083;-70
2022/10/14 07:24:48;;;;;;;4.95;2.78;;;24.50;56.70;;;;;;5033449;28;20041;-67
2022/10/14 07:27:15;;;;;;;5.07;2.35;;;24.60;57.00;;;;;;5032911;28;20525;-68
2022/10/14 07:29:41;;;;;;;6.95;3.20;;;24.60;57.10;;;;;;5033097;28;20030;-67
2022/10/14 07:32:08;;;;;;;4.93;2.78;;;24.50;57.20;;;;;;5029942;28;20041;-67
2022/10/14 07:34:34;;;;;;;8.73;3.20;;;24.50;57.20;;;;;;5030567;28;20564;-66
2022/10/14 07:37:00;;;;;;;6.90;3.05;;;24.50;57.70;;;;;;5011429;28;20044;-67
2022/10/14 07:39:26;;;;;;;4.70;3.33;;;24.50;57.60;;;;;;5016585;28;20042;-70
2022/10/14 07:41:52;;;;;;;4.53;2.55;;;24.50;57.70;;;;;;5012302;28;20103;-68
2022/10/14 07:44:19;;;;;;;3.78;2.88;;;24.50;57.50;;;;;;5002567;28;20034;-70
2022/10/14 07:46:46;;;;;;;3.35;2.33;;;24.50;57.70;;;;;;5012622;28;20065;-69
2022/10/14 07:49:17;;;;;;;6.35;2.63;;;24.40;57.70;;;;;;5016550;28;20507;-67
2022/10/14 07:51:45;;;;;;;6.60;3.13;;;24.50;57.90;;;;;;4981517;28;20034;-68
2022/10/14 07:54:18;;;;;;;4.40;2.78;;;24.50;58.00;;;;;;5016531;28;20033;-69
2022/10/14 07:56:45;;;;;;;7.25;3.05;;;24.50;58.10;;;;;;5015675;28;20455;-70
2022/10/14 07:59:12;;;;;;;4.75;3.08;;;24.50;58.10;;;;;;5031463;28;20033;-70
2022/10/14 08:01:38;;;;;;;4.68;2.65;;;24.60;58.20;;;;;;5031319;28;20041;-70
2022/10/14 08:04:04;;;;;;;7.82;3.40;;;24.50;58.30;;;;;;5033294;28;20426;-68
2022/10/14 08:06:30;;;;;;;7.47;2.67;;;24.50;58.40;;;;;;5033205;28;20050;-69
2022/10/14 08:08:56;;;;;;;5.82;2.92;;;24.50;58.40;;;;;;5031881;28;20103;-69
2022/10/14 08:11:24;;;;;;;7.60;3.10;;;24.50;58.80;;;;;;5030738;28;20033;-69
2022/10/14 08:13:51;;;;;;;5.80;2.90;;;24.50;58.60;;;;;;5033421;28;20040;-68
2022/10/14 08:16:27;;;;;;;5.90;3.15;;;24.40;57.90;;;;;;5032946;28;20138;-65
2022/10/14 08:18:56;;;;;;;4.53;2.83;;;24.30;56.50;;;;;;5033178;28;20084;-66
2022/10/14 08:21:22;;;;;;;8.90;2.92;;;24.40;54.60;;;;;;5032790;28;20041;-65
2022/10/14 08:23:48;;;;;;;4.15;1.92;;;24.50;54.10;;;;;;5023978;28;20490;-69
2022/10/14 08:26:31;;;;;;;7.47;2.70;;;24.50;54.70;;;;;;5032293;28;20028;-66
2022/10/14 08:29:00;;;;;;;6.78;2.83;;;24.50;52.90;;;;;;5032958;28;20044;-67
2022/10/14 08:31:26;;;;;;;4.35;2.35;;;24.50;50.90;;;;;;5032503;28;20072;-64
2022/10/14 08:33:52;;;;;;;3.38;2.65;;;24.50;50.60;;;;;;5031773;28;20065;-65
2022/10/14 08:36:19;;;;;;;7.70;2.58;;;24.70;51.20;;;;;;5032852;28;20026;-65
2022/10/14 08:38:46;;;;;;;11.45;4.00;;;24.70;52.10;;;;;;5032664;28;20398;-67
2022/10/14 08:41:13;;;;;;;5.40;3.65;;;24.60;54.50;;;;;;5032730;28;20041;-66
2022/10/14 08:44:04;;;;;;;8.10;3.42;;;24.80;55.40;;;;;;5032831;28;20044;-65
2022/10/14 08:46:39;;;;;;;6.78;3.83;;;24.80;55.70;;;;;;5019119;28;20080;-67
2022/10/14 08:49:12;;;;;;;3.92;3.28;;;24.80;55.70;;;;;;5032233;28;20069;-67
2022/10/14 08:51:42;;;;;;;6.75;3.67;;;24.80;55.90;;;;;;5032545;28;20044;-66
2022/10/14 08:54:14;;;;;;;5.80;3.03;;;24.80;56.10;;;;;;5031359;28;20045;-66
2022/10/14 08:56:41;;;;;;;6.13;4.28;;;24.80;56.50;;;;;;5032044;28;20037;-67
2022/10/14 08:59:18;;;;;;;5.03;3.03;;;24.60;56.60;;;;;;5032156;28;20041;-67
2022/10/14 09:01:51;;;;;;;9.80;3.53;;;24.70;56.70;;;;;;5032313;28;20033;-69
2022/10/14 09:04:19;;;;;;;5.88;3.85;;;24.80;56.80;;;;;;5032270;28;20025;-68
2022/10/14 09:06:47;;;;;;;5.85;3.55;;;24.70;56.80;;;;;;5031347;28;20068;-67
2022/10/14 09:09:32;;;;;;;9.48;4.53;;;24.70;56.80;;;;;;5031335;28;20041;-68
2022/10/14 09:12:01;;;;;;;8.60;3.05;;;24.60;56.90;;;;;;5031376;28;20460;-67
2022/10/14 09:14:37;;;;;;;8.45;3.10;;;24.80;57.10;;;;;;5031360;28;20033;-69
2022/10/14 09:17:12;;;;;;;5.63;3.10;;;24.80;57.20;;;;;;5032047;28;20025;-68
2022/10/14 09:19:49;;;;;;;4.93;3.35;;;24.70;57.20;;;;;;5030989;28;20046;-69
2022/10/14 09:22:15;;;;;;;5.68;3.00;;;24.60;57.10;;;;;;5031728;28;20037;-68
2022/10/14 09:24:47;;;;;;;7.43;3.00;;;24.80;57.20;;;;;;5018087;28;20435;-67
2022/10/14 09:27:17;;;;;;;8.40;3.20;;;24.80;57.20;;;;;;5022807;28;20023;-66
2022/10/14 09:29:58;;;;;;;6.85;3.85;;;24.80;57.20;;;;;;5032077;28;20455;-68
2022/10/14 09:32:39;;;;;;;15.65;7.38;;;24.80;57.00;;;;;;5012995;28;20041;-67
2022/10/14 09:35:14;;;;;;;5.95;3.50;;;25.20;60.60;;;;;;5032159;28;20033;-68
2022/10/14 09:37:41;;;;;;;5.50;3.08;;;26.10;64.50;;;;;;5032103;28;20037;-68
2022/10/14 09:40:22;;;;;;;7.05;3.50;;;26.30;49.10;;;;;;5031464;28;20045;-68
2022/10/14 09:43:07;;;;;;;10.68;3.75;;;26.10;55.50;;;;;;5032062;28;20068;-69
2022/10/14 09:46:06;;;;;;;8.38;3.50;;;25.90;57.60;;;;;;5030627;28;20117;-69
2022/10/14 09:48:32;;;;;;;7.88;4.45;;;26.50;59.20;;;;;;5030674;28;20040;-70
2022/10/14 09:51:01;;;;;;;7.25;3.80;;;26.50;57.60;;;;;;5031681;28;20041;-70
2022/10/14 09:53:27;;;;;;;8.73;3.47;;;26.40;55.60;;;;;;5031666;28;20033;-71
2022/10/14 09:55:57;;;;;;;14.10;3.83;;;26.30;54.70;;;;;;5030104;28;20041;-71
2022/10/14 09:58:56;;;;;;;7.15;3.15;;;26.10;54.60;;;;;;5031365;28;20079;-70
2022/10/14 10:01:24;;;;;;;6.60;3.05;;;26.00;54.70;;;;;;4969353;28;20050;-71
2022/10/14 10:03:52;;;;;;;3.83;3.53;;;25.90;54.40;;;;;;4953612;28;20696;-70
2022/10/14 10:06:26;;;;;;;4.82;2.90;;;25.90;54.60;;;;;;4969906;28;20181;-70
2022/10/14 10:08:52;;;;;;;4.88;2.95;;;25.80;54.80;;;;;;4969859;28;20038;-70
2022/10/14 10:11:32;;;;;;;3.53;2.97;;;25.70;55.00;;;;;;4967878;28;20090;-70
2022/10/14 10:13:58;;;;;;;6.40;3.13;;;25.60;55.00;;;;;;4968429;28;20050;-70
2022/10/14 10:16:30;;;;;;;4.45;3.38;;;25.60;55.10;;;;;;4969816;28;20460;-71
2022/10/14 10:18:59;;;;;;;6.60;3.00;;;25.60;55.00;;;;;;4969590;28;20054;-70
2022/10/14 10:21:28;;;;;;;4.22;3.38;;;25.70;54.70;;;;;;4968581;28;20146;-70
2022/10/14 10:24:02;;;;;;;4.60;2.97;;;25.60;54.40;;;;;;4969611;28;20071;-73
2022/10/14 10:26:32;;;;;;;5.30;3.20;;;25.60;54.10;;;;;;4967352;28;20038;-73
2022/10/14 10:29:01;;;;;;;7.28;3.70;;;25.50;55.50;;;;;;4967934;28;20043;-72
2022/10/14 10:31:42;;;;;;;5.20;3.42;;;25.70;56.60;;;;;;4954946;28;20468;-71
2022/10/14 10:34:10;;;;;;;7.32;3.47;;;25.60;57.60;;;;;;4966682;28;20047;-72
2022/10/14 10:36:47;;;;;;;7.40;3.22;;;25.80;57.20;;;;;;4972637;28;20090;-73
2022/10/14 10:39:31;;;;;;;6.53;3.55;;;25.60;55.10;;;;;;5029341;28;20060;-71
2022/10/14 10:42:06;;;;;;;8.07;3.75;;;25.70;53.70;;;;;;5033947;28;20612;-70
2022/10/14 10:44:32;;;;;;;6.70;3.88;;;25.60;53.10;;;;;;5030456;28;20091;-71
2022/10/14 10:47:27;;;;;;;6.95;3.78;;;25.60;53.20;;;;;;5033017;28;20508;-69
2022/10/14 10:50:08;;;;;;;5.38;3.78;;;25.50;53.20;;;;;;4970732;28;20046;-70
2022/10/14 10:53:15;;;;;;;5.95;3.65;;;25.40;53.00;;;;;;4951467;28;20066;-69
2022/10/14 10:56:05;;;;;;;7.43;3.80;;;25.40;52.70;;;;;;4896770;29;20072;-73
2022/10/14 10:58:45;;;;;;;10.13;5.28;;;25.30;52.20;;;;;;4881328;29;20061;-70
2022/10/14 11:01:17;;;;;;;5.50;3.80;;;25.40;52.10;;;;;;4884191;29;20139;-67
2022/10/14 11:04:10;;;;;;;10.00;3.88;;;25.30;52.20;;;;;;4888258;29;20053;-67
2022/10/14 11:13:44;;;;;;;7.38;4.18;;;25.30;53.80;;;;;;4873073;29;20060;-72
2022/10/14 11:16:37;;;;;;;8.68;3.88;;;25.20;53.60;;;;;;4803939;29;20535;-67
2022/10/14 11:19:12;;;;;;;7.10;3.22;;;25.20;53.30;;;;;;4786820;29;20059;-66
2022/10/14 11:21:47;;;;;;;9.52;3.83;;;25.20;53.90;;;;;;4786366;30;20142;-67
2022/10/14 11:24:15;;;;;;;7.13;4.10;;;25.00;53.70;;;;;;4800199;29;20082;-67
2022/10/14 11:26:55;;;;;;;6.53;3.97;;;25.10;53.40;;;;;;4813161;29;20447;-67
2022/10/14 11:29:21;;;;;;;16.90;4.53;;;25.10;52.70;;;;;;4859547;29;20128;-66
2022/10/14 11:31:55;;;;;;;7.45;4.32;;;25.00;53.00;;;;;;4899093;29;20135;-65
2022/10/14 11:34:27;;;;;;;5.43;3.80;;;25.10;53.30;;;;;;4915510;29;20765;-65
2022/10/14 11:37:12;;;;;;;11.23;4.03;;;25.00;53.60;;;;;;4899725;29;20154;-66
2022/10/14 11:39:58;;;;;;;6.90;3.85;;;25.00;53.50;;;;;;4914561;29;20166;-66
2022/10/14 11:42:42;;;;;;;6.10;3.65;;;24.90;53.40;;;;;;4898696;29;20505;-66
2022/10/14 11:45:29;;;;;;;9.63;3.92;;;25.20;53.20;;;;;;4915421;29;20044;-68
2022/10/14 11:48:19;;;;;;;7.07;3.00;;;25.00;53.80;;;;;;4972992;28;20042;-69
2022/10/14 11:50:51;;;;;;;6.25;3.30;;;25.00;54.10;;;;;;4972528;28;20042;-70
2022/10/14 11:53:42;;;;;;;6.97;3.40;;;25.00;54.10;;;;;;5001964;28;20107;-69
2022/10/14 11:56:31;;;;;;;4.65;2.42;;;25.00;53.60;;;;;;4969993;28;20038;-70
2022/10/14 11:59:42;;;;;;;7.60;2.40;;;25.00;51.20;;;;;;4972196;28;20043;-69
2022/10/14 12:02:32;;;;;;;6.15;2.65;;;25.00;52.10;;;;;;4954121;28;20051;-68
2022/10/14 12:05:25;;;;;;;8.32;2.70;;;25.20;51.40;;;;;;4972141;28;20046;-69
2022/10/14 12:08:06;;;;;;;3.80;2.73;;;25.00;51.00;;;;;;4971918;28;20138;-68
2022/10/14 12:10:37;;;;;;;5.82;2.45;;;25.00;50.30;;;;;;4972098;28;20043;-68
2022/10/14 12:13:09;;;;;;;6.95;2.72;;;25.00;50.40;;;;;;4971891;28;20043;-69
2022/10/14 12:15:39;;;;;;;4.70;3.03;;;25.00;50.00;;;;;;4956028;28;20128;-68
2022/10/14 12:18:06;;;;;;;5.85;2.30;;;25.00;50.30;;;;;;4972019;28;20400;-68
2022/10/14 12:20:53;;;;;;;4.80;2.17;;;25.00;50.20;;;;;;4955785;28;20053;-68
2022/10/14 12:24:14;;;;;;;7.20;2.33;;;25.00;50.50;;;;;;4970987;28;20117;-67
2022/10/14 12:26:57;;;;;;;6.72;2.60;;;25.00;50.60;;;;;;4863339;29;20036;-68
2022/10/14 12:29:41;;;;;;;7.20;2.45;;;25.00;50.50;;;;;;4895379;29;20041;-68
2022/10/14 12:32:21;;;;;;;3.20;2.42;;;24.80;49.90;;;;;;4879892;29;20049;-69
2022/10/14 12:34:48;;;;;;;3.38;1.75;;;24.90;50.90;;;;;;4943479;29;20039;-68
2022/10/14 12:37:23;;;;;;;5.50;2.03;;;24.80;50.90;;;;;;4954465;28;20046;-68
2022/10/14 12:39:51;;;;;;;3.70;1.95;;;24.80;51.00;;;;;;4949996;29;20053;-68
2022/10/14 12:42:19;;;;;;;3.25;2.60;;;24.80;50.90;;;;;;4951998;29;20608;-68
2022/10/14 12:44:55;;;;;;;4.53;2.33;;;24.80;51.10;;;;;;4952294;29;20079;-68
2022/10/14 12:47:27;;;;;;;6.65;3.65;;;24.80;51.10;;;;;;4951772;29;20047;-67
2022/10/14 12:49:55;;;;;;;;;;;24.80;51.20;;;;;;4927010;29;20044;-68
2022/10/14 12:52:28;;;;;;;5.60;2.70;;;24.80;51.20;;;;;;4947294;28;19910;-68
2022/10/14 12:54:54;;;;;;;;;;;24.70;51.10;;;;;;4952544;29;20118;-68
2022/10/14 12:57:30;;;;;;;6.63;3.03;;;24.80;51.20;;;;;;4958626;28;19910;-68
2022/10/14 13:00:06;;;;;;;6.00;2.58;;;24.80;51.20;;;;;;4970692;28;20034;-68
2022/10/14 13:02:37;;;;;;;5.25;3.13;;;24.80;51.10;;;;;;5017911;28;20053;-68
2022/10/14 13:05:07;;;;;;;6.57;3.30;;;24.80;50.50;;;;;;5032537;28;20547;-69
2022/10/14 13:07:44;;;;;;;6.22;3.28;;;24.70;50.30;;;;;;5031826;28;20061;-69
2022/10/14 13:10:38;;;;;;;9.98;3.95;;;24.80;49.80;;;;;;5031672;28;20548;-69
2022/10/14 13:13:43;;;;;;;7.68;4.93;;;24.70;49.60;;;;;;5032169;28;20091;-68
2022/10/14 13:16:30;;;;;;;10.25;4.43;;;24.70;49.30;;;;;;5032165;28;20036;-68
2022/10/14 13:19:00;;;;;;;4.85;3.47;;;24.80;49.00;;;;;;5030722;28;20029;-67
2022/10/14 13:21:30;;;;;;;8.73;3.45;;;24.70;48.80;;;;;;5031489;28;20039;-68
2022/10/14 13:24:04;;;;;;;5.75;3.70;;;24.70;48.90;;;;;;5008931;28;20081;-67